sensor_id;sensor_type;location;lat;lon;timestamp;temperature;humidity
34492;DHT22;20737;49.908;8.126;2023-06-01T00:02:00;14.40;99.90
34492;DHT22;20737;49.908;8.126;2023-06-01T00:04:28;14.30;99.90
34492;DHT22;20737;49.908;8.126;2023-06-01T00:06:57;14.30;99.90
34492;DHT22;20737;49.908;8.126;2023-06-01T00:09:26;14.30;99.90
34492;DHT22;20737;49.908;8.126;2023-06-01T00:11:53;14.20;99.90
34492;DHT22;20737;49.908;8.126;2023-06-01T00:14:20;14.30;99.90
34492;DHT22;20737;49.908;8.126;2023-06-01T00:16:46;14.30;99.90
34492;DHT22;20737;49.908;8.126;2023-06-01T00:19:13;14.30;99.90
34492;DHT22;20737;49.908;8.126;2023-06-01T00:21:41;14.30;99.90
34492;DHT22;20737;49.908;8.126;2023-06-01T00:24:08;14.30;99.90
34492;DHT22;20737;49.908;8.126;2023-06-01T00:26:35;14.30;99.90
34492;DHT22;20737;49.908;8.126;2023-06-01T00:29:01;14.20;99.90
34492;DHT22;20737;49.908;8.126;2023-06-01T00:31:28;14.20;99.90
34492;DHT22;20737;49.908;8.126;2023-06-01T00:33:55;14.10;99.90
34492;DHT22;20737;49.908;8.126;2023-06-01T00:36:21;14.10;99.90
34492;DHT22;20737;49.908;8.126;2023-06-01T00:38:50;13.90;99.90
34492;DHT22;20737;49.908;8.126;2023-06-01T00:41:16;13.90;99.90
34492;DHT22;20737;49.908;8.126;2023-06-01T00:43:43;13.90;99.90
34492;DHT22;20737;49.908;8.126;2023-06-01T00:46:10;13.80;99.90
34492;DHT22;20737;49.908;8.126;2023-06-01T00:48:39;13.80;99.90
34492;DHT22;20737;49.908;8.126;2023-06-01T00:51:06;13.80;99.90
34492;DHT22;20737;49.908;8.126;2023-06-01T00:53:33;13.80;99.90
34492;DHT22;20737;49.908;8.126;2023-06-01T00:56:02;13.70;99.90
34492;DHT22;20737;49.908;8.126;2023-06-01T00:58:28;13.70;99.90
34492;DHT22;20737;49.908;8.126;2023-06-01T01:00:56;13.70;99.90
34492;DHT22;20737;49.908;8.126;2023-06-01T01:03:23;13.70;99.90
34492;DHT22;20737;49.908;8.126;2023-06-01T01:05:55;13.60;99.90
34492;DHT22;20737;49.908;8.126;2023-06-01T01:08:31;13.60;99.90
34492;DHT22;20737;49.908;8.126;2023-06-01T01:11:06;13.60;99.90
34492;DHT22;20737;49.908;8.126;2023-06-01T01:13:37;13.60;99.90
34492;DHT22;20737;49.908;8.126;2023-06-01T01:16:14;13.60;99.90
34492;DHT22;20737;49.908;8.126;2023-06-01T01:18:51;13.50;99.90
34492;DHT22;20737;49.908;8.126;2023-06-01T01:21:26;13.50;99.90
34492;DHT22;20737;49.908;8.126;2023-06-01T01:24:11;13.50;99.90
34492;DHT22;20737;49.908;8.126;2023-06-01T01:26:56;13.50;99.90
34492;DHT22;20737;49.908;8.126;2023-06-01T01:29:26;13.40;99.90
34492;DHT22;20737;49.908;8.126;2023-06-01T01:31:56;13.30;99.90
34492;DHT22;20737;49.908;8.126;2023-06-01T01:34:24;13.40;99.90
34492;DHT22;20737;49.908;8.126;2023-06-01T01:36:52;13.40;99.90
34492;DHT22;20737;49.908;8.126;2023-06-01T01:39:19;13.20;99.90
34492;DHT22;20737;49.908;8.126;2023-06-01T01:41:48;13.10;99.90
34492;DHT22;20737;49.908;8.126;2023-06-01T01:44:15;13.10;99.90
34492;DHT22;20737;49.908;8.126;2023-06-01T01:46:52;13.00;99.90
34492;DHT22;20737;49.908;8.126;2023-06-01T01:49:27;13.00;99.90
34492;DHT22;20737;49.908;8.126;2023-06-01T01:52:00;12.90;99.90
34492;DHT22;20737;49.908;8.126;2023-06-01T01:54:29;12.90;99.90
34492;DHT22;20737;49.908;8.126;2023-06-01T01:56:59;12.80;99.90
34492;DHT22;20737;49.908;8.126;2023-06-01T01:59:27;12.80;99.90
34492;DHT22;20737;49.908;8.126;2023-06-01T02:01:55;12.80;99.90
34492;DHT22;20737;49.908;8.126;2023-06-01T02:04:23;12.70;99.90
34492;DHT22;20737;49.908;8.126;2023-06-01T02:06:50;12.70;99.90
34492;DHT22;20737;49.908;8.126;2023-06-01T02:09:16;12.70;99.90
34492;DHT22;20737;49.908;8.126;2023-06-01T02:11:43;12.60;99.90
34492;DHT22;20737;49.908;8.126;2023-06-01T02:14:10;12.70;99.90
34492;DHT22;20737;49.908;8.126;2023-06-01T02:16:37;12.60;99.90
34492;DHT22;20737;49.908;8.126;2023-06-01T02:19:05;12.60;99.90
34492;DHT22;20737;49.908;8.126;2023-06-01T02:21:36;12.60;99.90
34492;DHT22;20737;49.908;8.126;2023-06-01T02:24:03;12.50;99.90
34492;DHT22;20737;49.908;8.126;2023-06-01T02:26:32;12.50;99.90
34492;DHT22;20737;49.908;8.126;2023-06-01T02:28:59;12.50;99.90
34492;DHT22;20737;49.908;8.126;2023-06-01T02:31:28;12.50;99.90
34492;DHT22;20737;49.908;8.126;2023-06-01T02:33:54;12.50;99.90
34492;DHT22;20737;49.908;8.126;2023-06-01T02:36:22;12.40;99.90
34492;DHT22;20737;49.908;8.126;2023-06-01T02:38:50;12.40;99.90
34492;DHT22;20737;49.908;8.126;2023-06-01T02:41:17;12.30;99.90
34492;DHT22;20737;49.908;8.126;2023-06-01T02:43:44;12.30;99.90
34492;DHT22;20737;49.908;8.126;2023-06-01T02:46:10;12.30;99.90
34492;DHT22;20737;49.908;8.126;2023-06-01T02:48:37;12.20;99.90
34492;DHT22;20737;49.908;8.126;2023-06-01T02:51:04;12.10;99.90
34492;DHT22;20737;49.908;8.126;2023-06-01T02:53:32;12.20;99.90
34492;DHT22;20737;49.908;8.126;2023-06-01T02:55:58;12.20;99.90
34492;DHT22;20737;49.908;8.126;2023-06-01T02:58:25;12.10;99.90
34492;DHT22;20737;49.908;8.126;2023-06-01T03:00:55;12.00;99.90
34492;DHT22;20737;49.908;8.126;2023-06-01T03:03:23;11.90;99.90
34492;DHT22;20737;49.908;8.126;2023-06-01T03:05:50;11.90;99.90
34492;DHT22;20737;49.908;8.126;2023-06-01T03:08:18;11.90;99.90
34492;DHT22;20737;49.908;8.126;2023-06-01T03:10:46;11.90;99.90
34492;DHT22;20737;49.908;8.126;2023-06-01T03:13:13;11.80;99.90
34492;DHT22;20737;49.908;8.126;2023-06-01T03:15:40;11.70;99.90
34492;DHT22;20737;49.908;8.126;2023-06-01T03:18:07;11.70;99.90
34492;DHT22;20737;49.908;8.126;2023-06-01T03:20:34;11.60;99.90
34492;DHT22;20737;49.908;8.126;2023-06-01T03:23:01;11.60;99.90
34492;DHT22;20737;49.908;8.126;2023-06-01T03:25:27;11.50;99.90
34492;DHT22;20737;49.908;8.126;2023-06-01T03:27:55;11.50;99.90
34492;DHT22;20737;49.908;8.126;2023-06-01T03:30:22;11.50;99.90
34492;DHT22;20737;49.908;8.126;2023-06-01T03:32:49;11.50;99.90
34492;DHT22;20737;49.908;8.126;2023-06-01T03:35:18;11.50;99.90
34492;DHT22;20737;49.908;8.126;2023-06-01T03:37:45;11.50;99.90
34492;DHT22;20737;49.908;8.126;2023-06-01T03:40:12;11.50;99.90
34492;DHT22;20737;49.908;8.126;2023-06-01T03:42:41;11.50;99.90
34492;DHT22;20737;49.908;8.126;2023-06-01T03:45:10;11.50;99.90
34492;DHT22;20737;49.908;8.126;2023-06-01T03:47:38;11.60;99.90
34492;DHT22;20737;49.908;8.126;2023-06-01T03:50:07;11.50;99.90
34492;DHT22;20737;49.908;8.126;2023-06-01T03:52:35;11.50;99.90
34492;DHT22;20737;49.908;8.126;2023-06-01T03:55:04;11.50;99.90
34492;DHT22;20737;49.908;8.126;2023-06-01T03:57:33;11.60;99.90
34492;DHT22;20737;49.908;8.126;2023-06-01T04:00:00;11.60;99.90
34492;DHT22;20737;49.908;8.126;2023-06-01T04:02:46;11.70;99.90
34492;DHT22;20737;49.908;8.126;2023-06-01T04:05:13;11.80;99.90
34492;DHT22;20737;49.908;8.126;2023-06-01T04:07:45;11.80;99.90
34492;DHT22;20737;49.908;8.126;2023-06-01T04:10:13;12.00;99.90
34492;DHT22;20737;49.908;8.126;2023-06-01T04:12:42;12.10;99.90
34492;DHT22;20737;49.908;8.126;2023-06-01T04:15:12;12.20;99.90
34492;DHT22;20737;49.908;8.126;2023-06-01T04:17:40;12.30;99.90
34492;DHT22;20737;49.908;8.126;2023-06-01T04:20:10;12.40;99.90
34492;DHT22;20737;49.908;8.126;2023-06-01T04:22:37;12.40;99.90
34492;DHT22;20737;49.908;8.126;2023-06-01T04:25:06;12.50;99.90
34492;DHT22;20737;49.908;8.126;2023-06-01T04:27:33;12.60;99.90
34492;DHT22;20737;49.908;8.126;2023-06-01T04:30:02;12.70;99.90
34492;DHT22;20737;49.908;8.126;2023-06-01T04:32:31;12.80;99.90
34492;DHT22;20737;49.908;8.126;2023-06-01T04:34:58;12.80;99.90
34492;DHT22;20737;49.908;8.126;2023-06-01T04:37:26;12.90;99.90
34492;DHT22;20737;49.908;8.126;2023-06-01T04:39:53;12.90;99.90
34492;DHT22;20737;49.908;8.126;2023-06-01T04:42:21;13.00;99.90
34492;DHT22;20737;49.908;8.126;2023-06-01T04:44:49;13.10;99.90
34492;DHT22;20737;49.908;8.126;2023-06-01T04:47:16;13.20;99.90
34492;DHT22;20737;49.908;8.126;2023-06-01T04:49:43;13.20;99.90
34492;DHT22;20737;49.908;8.126;2023-06-01T04:52:10;13.20;99.90
34492;DHT22;20737;49.908;8.126;2023-06-01T04:54:39;13.30;99.90
34492;DHT22;20737;49.908;8.126;2023-06-01T04:57:06;13.40;99.90
34492;DHT22;20737;49.908;8.126;2023-06-01T04:59:33;13.50;99.90
34492;DHT22;20737;49.908;8.126;2023-06-01T05:02:00;13.60;99.90
34492;DHT22;20737;49.908;8.126;2023-06-01T05:04:27;13.90;99.90
34492;DHT22;20737;49.908;8.126;2023-06-01T05:06:53;14.00;99.90
34492;DHT22;20737;49.908;8.126;2023-06-01T05:09:20;14.20;99.90
34492;DHT22;20737;49.908;8.126;2023-06-01T05:11:49;14.30;99.90
34492;DHT22;20737;49.908;8.126;2023-06-01T05:14:15;14.50;99.90
34492;DHT22;20737;49.908;8.126;2023-06-01T05:16:42;14.70;99.90
34492;DHT22;20737;49.908;8.126;2023-06-01T05:19:09;14.80;99.90
34492;DHT22;20737;49.908;8.126;2023-06-01T05:21:36;14.80;99.90
34492;DHT22;20737;49.908;8.126;2023-06-01T05:24:03;14.90;99.90
34492;DHT22;20737;49.908;8.126;2023-06-01T05:26:30;15.20;99.90
34492;DHT22;20737;49.908;8.126;2023-06-01T05:28:58;15.30;99.90
34492;DHT22;20737;49.908;8.126;2023-06-01T05:31:24;15.50;99.90
34492;DHT22;20737;49.908;8.126;2023-06-01T05:33:51;15.60;99.90
34492;DHT22;20737;49.908;8.126;2023-06-01T05:36:18;15.80;99.90
34492;DHT22;20737;49.908;8.126;2023-06-01T05:38:45;15.90;99.90
34492;DHT22;20737;49.908;8.126;2023-06-01T05:41:13;16.20;99.90
34492;DHT22;20737;49.908;8.126;2023-06-01T05:43:40;16.30;99.90
34492;DHT22;20737;49.908;8.126;2023-06-01T05:46:08;16.40;99.90
34492;DHT22;20737;49.908;8.126;2023-06-01T05:48:34;16.50;99.90
34492;DHT22;20737;49.908;8.126;2023-06-01T05:51:01;16.70;99.90
34492;DHT22;20737;49.908;8.126;2023-06-01T05:53:28;16.80;99.90
34492;DHT22;20737;49.908;8.126;2023-06-01T05:55:55;17.10;99.90
34492;DHT22;20737;49.908;8.126;2023-06-01T05:58:22;17.30;99.90
34492;DHT22;20737;49.908;8.126;2023-06-01T06:00:49;17.50;99.90
34492;DHT22;20737;49.908;8.126;2023-06-01T06:03:17;17.70;99.90
34492;DHT22;20737;49.908;8.126;2023-06-01T06:05:44;17.80;99.90
34492;DHT22;20737;49.908;8.126;2023-06-01T06:08:10;17.80;99.90
34492;DHT22;20737;49.908;8.126;2023-06-01T06:10:40;18.10;99.90
34492;DHT22;20737;49.908;8.126;2023-06-01T06:13:06;18.30;99.90
34492;DHT22;20737;49.908;8.126;2023-06-01T06:15:35;18.60;99.90
34492;DHT22;20737;49.908;8.126;2023-06-01T06:18:02;18.90;99.90
34492;DHT22;20737;49.908;8.126;2023-06-01T06:20:30;19.10;99.90
34492;DHT22;20737;49.908;8.126;2023-06-01T06:22:59;19.20;99.90
34492;DHT22;20737;49.908;8.126;2023-06-01T06:25:25;19.40;99.90
34492;DHT22;20737;49.908;8.126;2023-06-01T06:27:52;19.40;99.90
34492;DHT22;20737;49.908;8.126;2023-06-01T06:30:19;19.60;99.90
34492;DHT22;20737;49.908;8.126;2023-06-01T06:32:46;19.90;99.90
34492;DHT22;20737;49.908;8.126;2023-06-01T06:35:13;20.20;99.90
34492;DHT22;20737;49.908;8.126;2023-06-01T06:37:43;20.80;99.90
34492;DHT22;20737;49.908;8.126;2023-06-01T06:40:10;21.30;99.90
34492;DHT22;20737;49.908;8.126;2023-06-01T06:42:37;22.20;99.90
34492;DHT22;20737;49.908;8.126;2023-06-01T06:45:05;22.90;99.90
34492;DHT22;20737;49.908;8.126;2023-06-01T06:47:32;23.40;98.30
34492;DHT22;20737;49.908;8.126;2023-06-01T06:49:59;24.00;98.10
34492;DHT22;20737;49.908;8.126;2023-06-01T06:52:26;24.80;96.50
34492;DHT22;20737;49.908;8.126;2023-06-01T06:54:54;24.90;93.10
34492;DHT22;20737;49.908;8.126;2023-06-01T06:57:21;25.20;92.50
34492;DHT22;20737;49.908;8.126;2023-06-01T06:59:47;25.40;91.00
34492;DHT22;20737;49.908;8.126;2023-06-01T07:02:14;25.80;88.60
34492;DHT22;20737;49.908;8.126;2023-06-01T07:04:41;26.50;85.00
34492;DHT22;20737;49.908;8.126;2023-06-01T07:07:08;26.80;85.30
34492;DHT22;20737;49.908;8.126;2023-06-01T07:09:35;27.40;79.70
34492;DHT22;20737;49.908;8.126;2023-06-01T07:12:04;27.40;78.10
34492;DHT22;20737;49.908;8.126;2023-06-01T07:14:31;27.70;78.30
34492;DHT22;20737;49.908;8.126;2023-06-01T07:16:58;28.20;76.60
34492;DHT22;20737;49.908;8.126;2023-06-01T07:19:25;29.00;76.50
34492;DHT22;20737;49.908;8.126;2023-06-01T07:21:58;29.20;70.40
34492;DHT22;20737;49.908;8.126;2023-06-01T07:24:24;29.20;70.10
34492;DHT22;20737;49.908;8.126;2023-06-01T07:26:51;29.60;67.70
34492;DHT22;20737;49.908;8.126;2023-06-01T07:29:20;29.70;68.70
34492;DHT22;20737;49.908;8.126;2023-06-01T07:31:49;30.30;61.00
34492;DHT22;20737;49.908;8.126;2023-06-01T07:34:16;30.00;58.60
34492;DHT22;20737;49.908;8.126;2023-06-01T07:36:44;30.10;59.70
34492;DHT22;20737;49.908;8.126;2023-06-01T07:39:11;30.20;60.90
34492;DHT22;20737;49.908;8.126;2023-06-01T07:41:38;30.20;59.30
34492;DHT22;20737;49.908;8.126;2023-06-01T07:44:05;30.60;59.90
34492;DHT22;20737;49.908;8.126;2023-06-01T07:46:34;31.10;58.40
34492;DHT22;20737;49.908;8.126;2023-06-01T07:49:01;31.50;56.30
34492;DHT22;20737;49.908;8.126;2023-06-01T07:51:28;31.70;54.20
34492;DHT22;20737;49.908;8.126;2023-06-01T07:53:56;31.40;54.50
34492;DHT22;20737;49.908;8.126;2023-06-01T07:56:25;30.90;53.70
34492;DHT22;20737;49.908;8.126;2023-06-01T07:58:52;31.40;53.50
34492;DHT22;20737;49.908;8.126;2023-06-01T08:01:18;31.40;53.50
34492;DHT22;20737;49.908;8.126;2023-06-01T08:03:47;31.50;53.30
34492;DHT22;20737;49.908;8.126;2023-06-01T08:06:14;31.70;50.50
34492;DHT22;20737;49.908;8.126;2023-06-01T08:08:41;31.10;52.10
34492;DHT22;20737;49.908;8.126;2023-06-01T08:11:12;30.60;55.00
34492;DHT22;20737;49.908;8.126;2023-06-01T08:13:39;30.10;55.30
34492;DHT22;20737;49.908;8.126;2023-06-01T08:16:07;29.70;56.10
34492;DHT22;20737;49.908;8.126;2023-06-01T08:18:33;28.90;56.30
34492;DHT22;20737;49.908;8.126;2023-06-01T08:21:02;28.40;58.10
34492;DHT22;20737;49.908;8.126;2023-06-01T08:23:29;28.00;60.00
34492;DHT22;20737;49.908;8.126;2023-06-01T08:25:56;27.70;61.50
34492;DHT22;20737;49.908;8.126;2023-06-01T08:28:23;27.90;61.10
34492;DHT22;20737;49.908;8.126;2023-06-01T08:30:50;27.50;59.00
34492;DHT22;20737;49.908;8.126;2023-06-01T08:33:16;27.60;59.00
34492;DHT22;20737;49.908;8.126;2023-06-01T08:35:43;27.60;62.60
34492;DHT22;20737;49.908;8.126;2023-06-01T08:38:11;27.80;62.30
34492;DHT22;20737;49.908;8.126;2023-06-01T08:40:38;27.80;59.50
34492;DHT22;20737;49.908;8.126;2023-06-01T08:43:12;27.90;60.20
34492;DHT22;20737;49.908;8.126;2023-06-01T08:45:39;28.10;60.70
34492;DHT22;20737;49.908;8.126;2023-06-01T08:48:08;28.30;59.80
34492;DHT22;20737;49.908;8.126;2023-06-01T08:50:35;29.00;56.60
34492;DHT22;20737;49.908;8.126;2023-06-01T08:53:04;29.30;55.60
34492;DHT22;20737;49.908;8.126;2023-06-01T08:55:32;30.20;53.90
34492;DHT22;20737;49.908;8.126;2023-06-01T08:57:59;30.60;54.00
34492;DHT22;20737;49.908;8.126;2023-06-01T09:00:27;30.90;53.40
34492;DHT22;20737;49.908;8.126;2023-06-01T09:02:55;31.40;52.20
34492;DHT22;20737;49.908;8.126;2023-06-01T09:05:21;31.60;49.70
34492;DHT22;20737;49.908;8.126;2023-06-01T09:07:48;31.10;49.70
34492;DHT22;20737;49.908;8.126;2023-06-01T09:10:19;32.00;51.90
34492;DHT22;20737;49.908;8.126;2023-06-01T09:12:52;32.40;50.10
34492;DHT22;20737;49.908;8.126;2023-06-01T09:15:20;32.70;48.10
34492;DHT22;20737;49.908;8.126;2023-06-01T09:17:50;33.10;47.50
34492;DHT22;20737;49.908;8.126;2023-06-01T09:20:23;33.70;47.40
34492;DHT22;20737;49.908;8.126;2023-06-01T09:22:51;33.80;45.50
34492;DHT22;20737;49.908;8.126;2023-06-01T09:25:24;33.70;46.10
34492;DHT22;20737;49.908;8.126;2023-06-01T09:27:54;34.00;45.90
34492;DHT22;20737;49.908;8.126;2023-06-01T09:30:24;34.20;43.50
34492;DHT22;20737;49.908;8.126;2023-06-01T09:32:51;34.90;43.00
34492;DHT22;20737;49.908;8.126;2023-06-01T09:35:40;34.70;43.40
34492;DHT22;20737;49.908;8.126;2023-06-01T09:38:08;34.90;42.70
34492;DHT22;20737;49.908;8.126;2023-06-01T09:40:37;34.70;41.30
34492;DHT22;20737;49.908;8.126;2023-06-01T09:43:18;34.80;42.20
34492;DHT22;20737;49.908;8.126;2023-06-01T09:48:28;35.30;38.70
34492;DHT22;20737;49.908;8.126;2023-06-01T09:50:55;35.10;40.40
34492;DHT22;20737;49.908;8.126;2023-06-01T09:53:22;35.40;41.00
34492;DHT22;20737;49.908;8.126;2023-06-01T09:55:57;35.70;38.40
34492;DHT22;20737;49.908;8.126;2023-06-01T09:58:26;34.40;40.90
34492;DHT22;20737;49.908;8.126;2023-06-01T10:00:53;34.80;41.10
34492;DHT22;20737;49.908;8.126;2023-06-01T10:03:21;35.00;41.50
34492;DHT22;20737;49.908;8.126;2023-06-01T10:05:49;35.50;42.60
34492;DHT22;20737;49.908;8.126;2023-06-01T10:08:17;35.50;40.40
34492;DHT22;20737;49.908;8.126;2023-06-01T10:10:45;35.90;40.30
34492;DHT22;20737;49.908;8.126;2023-06-01T10:13:12;36.40;38.10
34492;DHT22;20737;49.908;8.126;2023-06-01T10:15:41;36.00;38.00
34492;DHT22;20737;49.908;8.126;2023-06-01T10:18:08;35.70;38.60
34492;DHT22;20737;49.908;8.126;2023-06-01T10:20:36;36.00;38.50
34492;DHT22;20737;49.908;8.126;2023-06-01T10:23:05;36.10;39.60
34492;DHT22;20737;49.908;8.126;2023-06-01T10:25:35;36.70;38.80
34492;DHT22;20737;49.908;8.126;2023-06-01T10:28:05;37.20;37.40
34492;DHT22;20737;49.908;8.126;2023-06-01T10:30:33;36.50;37.40
34492;DHT22;20737;49.908;8.126;2023-06-01T10:33:02;36.30;37.00
34492;DHT22;20737;49.908;8.126;2023-06-01T10:35:59;36.50;38.80
34492;DHT22;20737;49.908;8.126;2023-06-01T10:38:26;36.40;36.70
34492;DHT22;20737;49.908;8.126;2023-06-01T10:41:29;37.10;38.70
34492;DHT22;20737;49.908;8.126;2023-06-01T10:43:56;37.00;37.30
34492;DHT22;20737;49.908;8.126;2023-06-01T10:46:44;37.40;37.20
34492;DHT22;20737;49.908;8.126;2023-06-01T10:49:12;37.50;36.50
34492;DHT22;20737;49.908;8.126;2023-06-01T10:51:39;37.20;35.30
34492;DHT22;20737;49.908;8.126;2023-06-01T10:54:28;37.00;35.40
34492;DHT22;20737;49.908;8.126;2023-06-01T10:57:17;36.80;36.10
34492;DHT22;20737;49.908;8.126;2023-06-01T10:59:44;37.10;37.40
34492;DHT22;20737;49.908;8.126;2023-06-01T11:02:33;37.40;34.10
34492;DHT22;20737;49.908;8.126;2023-06-01T11:08:05;36.80;34.70
34492;DHT22;20737;49.908;8.126;2023-06-01T11:10:53;36.60;34.60
34492;DHT22;20737;49.908;8.126;2023-06-01T11:13:22;36.80;36.30
34492;DHT22;20737;49.908;8.126;2023-06-01T11:16:28;36.40;33.50
34492;DHT22;20737;49.908;8.126;2023-06-01T11:19:00;36.80;35.50
34492;DHT22;20737;49.908;8.126;2023-06-01T11:21:30;36.80;34.00
34492;DHT22;20737;49.908;8.126;2023-06-01T11:24:01;36.60;33.30
34492;DHT22;20737;49.908;8.126;2023-06-01T11:26:32;36.20;34.50
34492;DHT22;20737;49.908;8.126;2023-06-01T11:29:14;36.20;35.20
34492;DHT22;20737;49.908;8.126;2023-06-01T11:31:43;36.40;35.70
34492;DHT22;20737;49.908;8.126;2023-06-01T11:34:11;36.70;36.50
34492;DHT22;20737;49.908;8.126;2023-06-01T11:36:41;36.80;33.60
34492;DHT22;20737;49.908;8.126;2023-06-01T11:39:24;36.60;35.10
34492;DHT22;20737;49.908;8.126;2023-06-01T11:42:04;36.60;33.20
34492;DHT22;20737;49.908;8.126;2023-06-01T11:44:35;36.80;35.10
34492;DHT22;20737;49.908;8.126;2023-06-01T11:47:02;36.60;34.30
34492;DHT22;20737;49.908;8.126;2023-06-01T11:49:39;36.40;34.90
34492;DHT22;20737;49.908;8.126;2023-06-01T11:52:08;36.00;36.70
34492;DHT22;20737;49.908;8.126;2023-06-01T11:54:37;36.20;37.50
34492;DHT22;20737;49.908;8.126;2023-06-01T11:57:04;36.40;36.40
34492;DHT22;20737;49.908;8.126;2023-06-01T11:59:36;36.70;36.50
34492;DHT22;20737;49.908;8.126;2023-06-01T12:02:16;36.20;35.40
34492;DHT22;20737;49.908;8.126;2023-06-01T12:04:54;35.60;36.50
34492;DHT22;20737;49.908;8.126;2023-06-01T12:07:20;35.30;35.60
34492;DHT22;20737;49.908;8.126;2023-06-01T12:09:49;35.40;38.30
34492;DHT22;20737;49.908;8.126;2023-06-01T12:12:16;35.10;37.10
34492;DHT22;20737;49.908;8.126;2023-06-01T12:14:43;35.20;37.50
34492;DHT22;20737;49.908;8.126;2023-06-01T12:17:10;35.10;39.30
34492;DHT22;20737;49.908;8.126;2023-06-01T12:19:46;34.60;37.60
34492;DHT22;20737;49.908;8.126;2023-06-01T12:22:14;33.90;38.40
34492;DHT22;20737;49.908;8.126;2023-06-01T12:24:43;33.70;40.30
34492;DHT22;20737;49.908;8.126;2023-06-01T12:27:16;33.40;40.90
34492;DHT22;20737;49.908;8.126;2023-06-01T12:29:45;33.00;38.60
34492;DHT22;20737;49.908;8.126;2023-06-01T12:32:13;32.80;41.00
34492;DHT22;20737;49.908;8.126;2023-06-01T12:34:41;32.60;39.70
34492;DHT22;20737;49.908;8.126;2023-06-01T12:37:13;32.60;39.70
34492;DHT22;20737;49.908;8.126;2023-06-01T12:39:40;32.40;41.40
34492;DHT22;20737;49.908;8.126;2023-06-01T12:42:08;32.60;42.80
34492;DHT22;20737;49.908;8.126;2023-06-01T12:44:37;32.50;42.60
34492;DHT22;20737;49.908;8.126;2023-06-01T12:47:06;32.30;40.20
34492;DHT22;20737;49.908;8.126;2023-06-01T12:49:33;32.30;41.30
34492;DHT22;20737;49.908;8.126;2023-06-01T12:51:59;32.40;41.80
34492;DHT22;20737;49.908;8.126;2023-06-01T12:54:26;32.40;41.60
34492;DHT22;20737;49.908;8.126;2023-06-01T12:56:53;31.90;42.20
34492;DHT22;20737;49.908;8.126;2023-06-01T12:59:20;31.80;42.70
34492;DHT22;20737;49.908;8.126;2023-06-01T13:01:48;32.10;43.60
34492;DHT22;20737;49.908;8.126;2023-06-01T13:04:15;32.20;41.50
34492;DHT22;20737;49.908;8.126;2023-06-01T13:06:41;32.10;41.60
34492;DHT22;20737;49.908;8.126;2023-06-01T13:09:10;32.10;42.40
34492;DHT22;20737;49.908;8.126;2023-06-01T13:11:36;32.20;41.70
34492;DHT22;20737;49.908;8.126;2023-06-01T13:14:03;32.10;43.10
34492;DHT22;20737;49.908;8.126;2023-06-01T13:16:30;32.20;41.10
34492;DHT22;20737;49.908;8.126;2023-06-01T13:18:58;32.00;42.40
34492;DHT22;20737;49.908;8.126;2023-06-01T13:21:25;32.00;42.30
34492;DHT22;20737;49.908;8.126;2023-06-01T13:23:54;31.80;42.50
34492;DHT22;20737;49.908;8.126;2023-06-01T13:26:21;31.80;43.00
34492;DHT22;20737;49.908;8.126;2023-06-01T13:28:50;31.90;42.20
34492;DHT22;20737;49.908;8.126;2023-06-01T13:31:17;31.70;42.00
34492;DHT22;20737;49.908;8.126;2023-06-01T13:33:45;31.60;42.40
34492;DHT22;20737;49.908;8.126;2023-06-01T13:36:13;31.50;43.80
34492;DHT22;20737;49.908;8.126;2023-06-01T13:38:40;31.50;43.50
34492;DHT22;20737;49.908;8.126;2023-06-01T13:41:07;31.60;42.50
34492;DHT22;20737;49.908;8.126;2023-06-01T13:43:34;31.30;41.50
34492;DHT22;20737;49.908;8.126;2023-06-01T13:46:00;31.10;42.10
34492;DHT22;20737;49.908;8.126;2023-06-01T13:48:27;31.30;41.20
34492;DHT22;20737;49.908;8.126;2023-06-01T13:50:54;31.30;42.50
34492;DHT22;20737;49.908;8.126;2023-06-01T13:53:22;31.40;41.20
34492;DHT22;20737;49.908;8.126;2023-06-01T13:55:48;31.20;41.40
34492;DHT22;20737;49.908;8.126;2023-06-01T13:58:15;31.30;42.70
34492;DHT22;20737;49.908;8.126;2023-06-01T14:00:42;31.00;43.00
34492;DHT22;20737;49.908;8.126;2023-06-01T14:03:10;31.00;45.00
34492;DHT22;20737;49.908;8.126;2023-06-01T14:05:36;31.10;45.50
34492;DHT22;20737;49.908;8.126;2023-06-01T14:08:03;31.20;45.30
34492;DHT22;20737;49.908;8.126;2023-06-01T14:10:32;31.40;45.50
34492;DHT22;20737;49.908;8.126;2023-06-01T14:12:59;31.50;44.80
34492;DHT22;20737;49.908;8.126;2023-06-01T14:15:26;31.70;45.00
34492;DHT22;20737;49.908;8.126;2023-06-01T14:17:53;31.80;45.80
34492;DHT22;20737;49.908;8.126;2023-06-01T14:20:21;31.40;44.70
34492;DHT22;20737;49.908;8.126;2023-06-01T14:22:48;31.40;45.60
34492;DHT22;20737;49.908;8.126;2023-06-01T14:25:14;31.50;47.30
34492;DHT22;20737;49.908;8.126;2023-06-01T14:27:43;31.60;46.30
34492;DHT22;20737;49.908;8.126;2023-06-01T14:30:10;31.60;46.80
34492;DHT22;20737;49.908;8.126;2023-06-01T14:32:37;31.60;46.80
34492;DHT22;20737;49.908;8.126;2023-06-01T14:35:04;31.50;46.00
34492;DHT22;20737;49.908;8.126;2023-06-01T14:37:31;31.40;46.60
34492;DHT22;20737;49.908;8.126;2023-06-01T14:39:58;31.30;46.00
34492;DHT22;20737;49.908;8.126;2023-06-01T14:42:25;31.10;45.80
34492;DHT22;20737;49.908;8.126;2023-06-01T14:44:53;30.90;44.60
34492;DHT22;20737;49.908;8.126;2023-06-01T14:47:19;30.60;45.10
34492;DHT22;20737;49.908;8.126;2023-06-01T14:49:46;30.70;47.30
34492;DHT22;20737;49.908;8.126;2023-06-01T14:52:13;30.70;47.90
34492;DHT22;20737;49.908;8.126;2023-06-01T14:54:40;30.90;47.50
34492;DHT22;20737;49.908;8.126;2023-06-01T14:57:06;30.90;46.20
34492;DHT22;20737;49.908;8.126;2023-06-01T14:59:33;31.00;46.40
34492;DHT22;20737;49.908;8.126;2023-06-01T15:02:03;30.90;46.50
34492;DHT22;20737;49.908;8.126;2023-06-01T15:04:32;30.90;47.80
34492;DHT22;20737;49.908;8.126;2023-06-01T15:06:59;30.90;46.70
34492;DHT22;20737;49.908;8.126;2023-06-01T15:09:26;30.70;46.80
34492;DHT22;20737;49.908;8.126;2023-06-01T15:11:53;30.60;47.30
34492;DHT22;20737;49.908;8.126;2023-06-01T15:14:21;30.40;47.80
34492;DHT22;20737;49.908;8.126;2023-06-01T15:16:48;30.50;48.70
34492;DHT22;20737;49.908;8.126;2023-06-01T15:19:16;30.60;48.70
34492;DHT22;20737;49.908;8.126;2023-06-01T15:21:43;30.60;48.70
34492;DHT22;20737;49.908;8.126;2023-06-01T15:24:10;30.50;47.40
34492;DHT22;20737;49.908;8.126;2023-06-01T15:26:36;30.60;48.90
34492;DHT22;20737;49.908;8.126;2023-06-01T15:29:03;30.60;49.00
34492;DHT22;20737;49.908;8.126;2023-06-01T15:31:30;30.60;48.90
34492;DHT22;20737;49.908;8.126;2023-06-01T15:33:57;30.60;49.30
34492;DHT22;20737;49.908;8.126;2023-06-01T15:36:25;30.60;47.70
34492;DHT22;20737;49.908;8.126;2023-06-01T15:38:51;30.50;49.10
34492;DHT22;20737;49.908;8.126;2023-06-01T15:41:18;30.40;49.30
34492;DHT22;20737;49.908;8.126;2023-06-01T15:43:45;30.30;49.50
34492;DHT22;20737;49.908;8.126;2023-06-01T15:46:12;30.40;49.40